sensor_id;sensor_type;location;lat;lon;timestamp;P1;durP1;ratioP1;P2;durP2;ratioP2
679;SDS011;322;48.846;9.230;2023-06-22T00:01:26;12.43;;;11.13;;
679;SDS011;322;48.846;9.230;2023-06-22T00:03:54;13.90;;;12.13;;
679;SDS011;322;48.846;9.230;2023-06-22T00:06:22;15.37;;;13.67;;
679;SDS011;322;48.846;9.230;2023-06-22T00:08:50;13.33;;;12.03;;
679;SDS011;322;48.846;9.230;2023-06-22T00:11:18;13.97;;;12.67;;
679;SDS011;322;48.846;9.230;2023-06-22T00:13:46;13.83;;;12.43;;
679;SDS011;322;48.846;9.230;2023-06-22T00:16:17;12.93;;;11.83;;
679;SDS011;322;48.846;9.230;2023-06-22T00:18:45;12.00;;;10.80;;
679;SDS011;322;48.846;9.230;2023-06-22T00:21:13;13.60;;;12.17;;
679;SDS011;322;48.846;9.230;2023-06-22T00:23:41;13.60;;;12.37;;
679;SDS011;322;48.846;9.230;2023-06-22T00:26:10;14.90;;;13.30;;
679;SDS011;322;48.846;9.230;2023-06-22T00:28:38;14.50;;;13.00;;
679;SDS011;322;48.846;9.230;2023-06-22T00:31:06;14.33;;;12.63;;
679;SDS011;322;48.846;9.230;2023-06-22T00:33:36;14.10;;;12.63;;
679;SDS011;322;48.846;9.230;2023-06-22T00:36:04;14.40;;;13.07;;
679;SDS011;322;48.846;9.230;2023-06-22T00:38:33;14.13;;;12.73;;
679;SDS011;322;48.846;9.230;2023-06-22T00:41:04;14.20;;;12.80;;
679;SDS011;322;48.846;9.230;2023-06-22T00:43:32;13.30;;;11.97;;
679;SDS011;322;48.846;9.230;2023-06-22T00:46:00;13.30;;;11.83;;
679;SDS011;322;48.846;9.230;2023-06-22T00:48:29;14.30;;;12.93;;
679;SDS011;322;48.846;9.230;2023-06-22T00:50:58;13.80;;;12.50;;
679;SDS011;322;48.846;9.230;2023-06-22T00:53:27;13.90;;;12.63;;
679;SDS011;322;48.846;9.230;2023-06-22T00:55:55;14.83;;;13.50;;
679;SDS011;322;48.846;9.230;2023-06-22T00:58:26;13.70;;;12.50;;
679;SDS011;322;48.846;9.230;2023-06-22T01:00:54;14.00;;;11.83;;
679;SDS011;322;48.846;9.230;2023-06-22T01:03:22;13.50;;;12.20;;
679;SDS011;322;48.846;9.230;2023-06-22T01:05:50;12.37;;;11.27;;
679;SDS011;322;48.846;9.230;2023-06-22T01:08:26;14.27;;;12.87;;
679;SDS011;322;48.846;9.230;2023-06-22T01:11:05;14.83;;;13.43;;
679;SDS011;322;48.846;9.230;2023-06-22T01:13:40;15.10;;;13.60;;
679;SDS011;322;48.846;9.230;2023-06-22T01:16:15;15.10;;;13.27;;
679;SDS011;322;48.846;9.230;2023-06-22T01:18:48;14.70;;;12.77;;
679;SDS011;322;48.846;9.230;2023-06-22T01:21:20;14.80;;;13.30;;
679;SDS011;322;48.846;9.230;2023-06-22T01:23:54;13.73;;;12.43;;
679;SDS011;322;48.846;9.230;2023-06-22T01:26:35;13.40;;;12.00;;
679;SDS011;322;48.846;9.230;2023-06-22T01:29:12;14.67;;;13.23;;
679;SDS011;322;48.846;9.230;2023-06-22T01:31:41;14.47;;;12.97;;
679;SDS011;322;48.846;9.230;2023-06-22T01:34:12;17.60;;;15.30;;
679;SDS011;322;48.846;9.230;2023-06-22T01:36:40;17.27;;;14.47;;
679;SDS011;322;48.846;9.230;2023-06-22T01:39:10;15.40;;;13.80;;
679;SDS011;322;48.846;9.230;2023-06-22T01:41:39;17.20;;;15.50;;
679;SDS011;322;48.846;9.230;2023-06-22T01:44:09;17.03;;;15.37;;
679;SDS011;322;48.846;9.230;2023-06-22T01:46:39;21.03;;;15.07;;
679;SDS011;322;48.846;9.230;2023-06-22T01:49:07;17.03;;;15.17;;
679;SDS011;322;48.846;9.230;2023-06-22T01:51:36;15.77;;;14.37;;
679;SDS011;322;48.846;9.230;2023-06-22T01:54:05;15.80;;;14.20;;
679;SDS011;322;48.846;9.230;2023-06-22T01:56:33;18.00;;;14.50;;
679;SDS011;322;48.846;9.230;2023-06-22T01:59:04;17.50;;;15.37;;
679;SDS011;322;48.846;9.230;2023-06-22T02:01:41;18.23;;;14.30;;
679;SDS011;322;48.846;9.230;2023-06-22T02:04:12;16.73;;;14.97;;
679;SDS011;322;48.846;9.230;2023-06-22T02:06:42;16.13;;;13.70;;
679;SDS011;322;48.846;9.230;2023-06-22T02:09:14;15.70;;;13.40;;
679;SDS011;322;48.846;9.230;2023-06-22T02:11:44;15.77;;;13.80;;
679;SDS011;322;48.846;9.230;2023-06-22T02:14:14;16.40;;;14.70;;
679;SDS011;322;48.846;9.230;2023-06-22T02:16:46;16.63;;;14.43;;
679;SDS011;322;48.846;9.230;2023-06-22T02:19:14;17.77;;;14.00;;
679;SDS011;322;48.846;9.230;2023-06-22T02:21:44;16.87;;;15.13;;
679;SDS011;322;48.846;9.230;2023-06-22T02:24:12;19.57;;;15.23;;
679;SDS011;322;48.846;9.230;2023-06-22T02:26:40;17.43;;;15.70;;
679;SDS011;322;48.846;9.230;2023-06-22T02:29:11;16.10;;;14.50;;
679;SDS011;322;48.846;9.230;2023-06-22T02:31:40;16.27;;;13.83;;
679;SDS011;322;48.846;9.230;2023-06-22T02:34:09;16.47;;;14.77;;
679;SDS011;322;48.846;9.230;2023-06-22T02:36:44;17.10;;;14.17;;
679;SDS011;322;48.846;9.230;2023-06-22T02:39:18;16.53;;;14.80;;
679;SDS011;322;48.846;9.230;2023-06-22T02:41:48;16.00;;;14.50;;
679;SDS011;322;48.846;9.230;2023-06-22T02:44:16;18.63;;;16.73;;
679;SDS011;322;48.846;9.230;2023-06-22T02:46:45;16.80;;;14.80;;
679;SDS011;322;48.846;9.230;2023-06-22T02:49:14;16.73;;;14.20;;
679;SDS011;322;48.846;9.230;2023-06-22T02:51:45;16.33;;;14.60;;
679;SDS011;322;48.846;9.230;2023-06-22T02:54:14;16.63;;;14.90;;
679;SDS011;322;48.846;9.230;2023-06-22T02:56:42;16.57;;;14.60;;
679;SDS011;322;48.846;9.230;2023-06-22T02:59:11;16.80;;;14.93;;
679;SDS011;322;48.846;9.230;2023-06-22T03:01:39;17.47;;;15.70;;
679;SDS011;322;48.846;9.230;2023-06-22T03:04:07;17.30;;;15.53;;
679;SDS011;322;48.846;9.230;2023-06-22T03:06:37;17.00;;;15.30;;
679;SDS011;322;48.846;9.230;2023-06-22T03:09:07;16.27;;;14.53;;
679;SDS011;322;48.846;9.230;2023-06-22T03:11:35;19.50;;;15.73;;
679;SDS011;322;48.846;9.230;2023-06-22T03:14:03;16.03;;;14.57;;
679;SDS011;322;48.846;9.230;2023-06-22T03:16:31;17.30;;;14.47;;
679;SDS011;322;48.846;9.230;2023-06-22T03:18:59;17.93;;;14.70;;
679;SDS011;322;48.846;9.230;2023-06-22T03:21:28;18.87;;;15.97;;
679;SDS011;322;48.846;9.230;2023-06-22T03:23:57;16.57;;;14.87;;
679;SDS011;322;48.846;9.230;2023-06-22T03:26:25;17.10;;;14.73;;
679;SDS011;322;48.846;9.230;2023-06-22T03:28:54;16.10;;;14.37;;
679;SDS011;322;48.846;9.230;2023-06-22T03:31:22;18.23;;;16.60;;
679;SDS011;322;48.846;9.230;2023-06-22T03:33:50;16.70;;;15.10;;
679;SDS011;322;48.846;9.230;2023-06-22T03:36:18;17.23;;;15.37;;
679;SDS011;322;48.846;9.230;2023-06-22T03:38:47;19.60;;;14.20;;
679;SDS011;322;48.846;9.230;2023-06-22T03:41:17;20.33;;;16.50;;
679;SDS011;322;48.846;9.230;2023-06-22T03:43:45;18.90;;;17.10;;
679;SDS011;322;48.846;9.230;2023-06-22T03:46:14;18.20;;;16.33;;
679;SDS011;322;48.846;9.230;2023-06-22T03:48:42;15.77;;;14.27;;
679;SDS011;322;48.846;9.230;2023-06-22T03:51:10;20.23;;;14.30;;
679;SDS011;322;48.846;9.230;2023-06-22T03:53:38;15.80;;;14.20;;
679;SDS011;322;48.846;9.230;2023-06-22T03:56:06;16.07;;;14.30;;
679;SDS011;322;48.846;9.230;2023-06-22T03:58:35;17.37;;;15.67;;
679;SDS011;322;48.846;9.230;2023-06-22T04:01:09;16.33;;;14.83;;
679;SDS011;322;48.846;9.230;2023-06-22T04:03:38;18.37;;;15.20;;
679;SDS011;322;48.846;9.230;2023-06-22T04:06:06;18.03;;;16.27;;
679;SDS011;322;48.846;9.230;2023-06-22T04:08:34;16.80;;;15.20;;
679;SDS011;322;48.846;9.230;2023-06-22T04:11:02;18.07;;;16.37;;
679;SDS011;322;48.846;9.230;2023-06-22T04:13:31;16.97;;;15.37;;
679;SDS011;322;48.846;9.230;2023-06-22T04:16:00;18.60;;;15.40;;
679;SDS011;322;48.846;9.230;2023-06-22T04:18:29;16.60;;;14.97;;
679;SDS011;322;48.846;9.230;2023-06-22T04:20:57;19.27;;;15.50;;
679;SDS011;322;48.846;9.230;2023-06-22T04:23:25;14.70;;;13.30;;
679;SDS011;322;48.846;9.230;2023-06-22T04:25:53;17.10;;;15.27;;
679;SDS011;322;48.846;9.230;2023-06-22T04:28:22;15.50;;;14.10;;
679;SDS011;322;48.846;9.230;2023-06-22T04:30:53;16.37;;;13.67;;
679;SDS011;322;48.846;9.230;2023-06-22T04:33:25;16.40;;;14.70;;
679;SDS011;322;48.846;9.230;2023-06-22T04:35:53;15.80;;;14.20;;
679;SDS011;322;48.846;9.230;2023-06-22T04:38:23;16.63;;;14.93;;
679;SDS011;322;48.846;9.230;2023-06-22T04:40:52;14.20;;;12.80;;
679;SDS011;322;48.846;9.230;2023-06-22T04:43:20;15.10;;;13.70;;
679;SDS011;322;48.846;9.230;2023-06-22T04:45:48;15.90;;;14.27;;
679;SDS011;322;48.846;9.230;2023-06-22T04:48:18;14.70;;;13.30;;
679;SDS011;322;48.846;9.230;2023-06-22T04:50:48;14.67;;;12.93;;
679;SDS011;322;48.846;9.230;2023-06-22T04:53:16;15.53;;;13.90;;
679;SDS011;322;48.846;9.230;2023-06-22T04:55:44;16.40;;;14.57;;
679;SDS011;322;48.846;9.230;2023-06-22T04:58:15;15.93;;;14.30;;
679;SDS011;322;48.846;9.230;2023-06-22T05:00:46;15.30;;;13.90;;
679;SDS011;322;48.846;9.230;2023-06-22T05:03:17;14.37;;;12.93;;
679;SDS011;322;48.846;9.230;2023-06-22T05:05:47;17.13;;;15.33;;
679;SDS011;322;48.846;9.230;2023-06-22T05:08:15;16.03;;;14.07;;
679;SDS011;322;48.846;9.230;2023-06-22T05:10:44;16.33;;;14.63;;
679;SDS011;322;48.846;9.230;2023-06-22T05:13:30;16.90;;;14.77;;
679;SDS011;322;48.846;9.230;2023-06-22T05:15:58;16.70;;;15.10;;
679;SDS011;322;48.846;9.230;2023-06-22T05:18:29;14.20;;;13.00;;
679;SDS011;322;48.846;9.230;2023-06-22T05:21:00;14.37;;;13.07;;
679;SDS011;322;48.846;9.230;2023-06-22T05:23:28;14.73;;;13.33;;
679;SDS011;322;48.846;9.230;2023-06-22T05:25:56;14.33;;;12.83;;
679;SDS011;322;48.846;9.230;2023-06-22T05:28:24;13.63;;;12.20;;
679;SDS011;322;48.846;9.230;2023-06-22T05:30:53;12.90;;;11.73;;
679;SDS011;322;48.846;9.230;2023-06-22T05:33:21;14.33;;;12.43;;
679;SDS011;322;48.846;9.230;2023-06-22T05:35:49;14.30;;;11.77;;
679;SDS011;322;48.846;9.230;2023-06-22T05:38:19;14.07;;;12.63;;
679;SDS011;322;48.846;9.230;2023-06-22T05:40:47;15.50;;;12.80;;
679;SDS011;322;48.846;9.230;2023-06-22T05:43:15;13.60;;;12.20;;
679;SDS011;322;48.846;9.230;2023-06-22T05:45:43;18.10;;;14.87;;
679;SDS011;322;48.846;9.230;2023-06-22T05:48:11;15.07;;;12.53;;
679;SDS011;322;48.846;9.230;2023-06-22T05:50:39;12.93;;;11.63;;
679;SDS011;322;48.846;9.230;2023-06-22T05:53:07;16.80;;;13.80;;
679;SDS011;322;48.846;9.230;2023-06-22T05:55:37;14.00;;;12.80;;
679;SDS011;322;48.846;9.230;2023-06-22T05:58:05;14.87;;;13.50;;
679;SDS011;322;48.846;9.230;2023-06-22T06:00:33;13.93;;;12.57;;
679;SDS011;322;48.846;9.230;2023-06-22T06:03:01;14.37;;;12.97;;
679;SDS011;322;48.846;9.230;2023-06-22T06:05:30;14.43;;;13.10;;
679;SDS011;322;48.846;9.230;2023-06-22T06:07:58;14.73;;;13.23;;
679;SDS011;322;48.846;9.230;2023-06-22T06:10:27;13.47;;;11.90;;
679;SDS011;322;48.846;9.230;2023-06-22T06:12:58;16.13;;;13.50;;
679;SDS011;322;48.846;9.230;2023-06-22T06:15:28;15.60;;;13.13;;
679;SDS011;322;48.846;9.230;2023-06-22T06:17:57;17.57;;;13.37;;
679;SDS011;322;48.846;9.230;2023-06-22T06:20:25;14.27;;;12.60;;
679;SDS011;322;48.846;9.230;2023-06-22T06:22:55;16.00;;;14.40;;
679;SDS011;322;48.846;9.230;2023-06-22T06:25:24;18.30;;;13.87;;
679;SDS011;322;48.846;9.230;2023-06-22T06:27:52;17.10;;;13.60;;
679;SDS011;322;48.846;9.230;2023-06-22T06:30:22;13.47;;;12.23;;
679;SDS011;322;48.846;9.230;2023-06-22T06:32:50;12.97;;;11.47;;
679;SDS011;322;48.846;9.230;2023-06-22T06:35:22;12.77;;;11.43;;
679;SDS011;322;48.846;9.230;2023-06-22T06:37:50;12.40;;;10.80;;
679;SDS011;322;48.846;9.230;2023-06-22T06:40:18;14.53;;;12.53;;
679;SDS011;322;48.846;9.230;2023-06-22T06:42:47;13.13;;;11.70;;
679;SDS011;322;48.846;9.230;2023-06-22T06:45:16;12.23;;;10.97;;
679;SDS011;322;48.846;9.230;2023-06-22T06:47:47;14.00;;;12.47;;
679;SDS011;322;48.846;9.230;2023-06-22T06:50:15;12.57;;;11.47;;
679;SDS011;322;48.846;9.230;2023-06-22T06:52:44;11.07;;;10.07;;
679;SDS011;322;48.846;9.230;2023-06-22T06:55:12;10.80;;;9.80;;
679;SDS011;322;48.846;9.230;2023-06-22T06:57:41;11.83;;;10.73;;
679;SDS011;322;48.846;9.230;2023-06-22T07:00:11;13.00;;;11.53;;
679;SDS011;322;48.846;9.230;2023-06-22T07:02:41;12.00;;;9.80;;
679;SDS011;322;48.846;9.230;2023-06-22T07:05:11;11.60;;;10.00;;
679;SDS011;322;48.846;9.230;2023-06-22T07:07:40;11.20;;;10.20;;
679;SDS011;322;48.846;9.230;2023-06-22T07:10:09;10.93;;;9.70;;
679;SDS011;322;48.846;9.230;2023-06-22T07:12:38;11.53;;;10.33;;
679;SDS011;322;48.846;9.230;2023-06-22T07:15:07;11.13;;;9.77;;
679;SDS011;322;48.846;9.230;2023-06-22T07:17:36;10.00;;;9.10;;
679;SDS011;322;48.846;9.230;2023-06-22T07:20:06;11.20;;;9.80;;
679;SDS011;322;48.846;9.230;2023-06-22T07:22:37;11.07;;;9.53;;
679;SDS011;322;48.846;9.230;2023-06-22T07:25:06;11.80;;;9.87;;
679;SDS011;322;48.846;9.230;2023-06-22T07:27:36;9.43;;;8.53;;
679;SDS011;322;48.846;9.230;2023-06-22T07:30:06;8.33;;;7.60;;
679;SDS011;322;48.846;9.230;2023-06-22T07:32:35;8.17;;;7.23;;
679;SDS011;322;48.846;9.230;2023-06-22T07:35:04;8.63;;;7.83;;
679;SDS011;322;48.846;9.230;2023-06-22T07:37:33;9.57;;;7.97;;
679;SDS011;322;48.846;9.230;2023-06-22T07:40:03;8.30;;;7.50;;
679;SDS011;322;48.846;9.230;2023-06-22T07:42:32;8.37;;;7.57;;
679;SDS011;322;48.846;9.230;2023-06-22T07:45:01;8.07;;;7.10;;
679;SDS011;322;48.846;9.230;2023-06-22T07:47:30;10.83;;;7.77;;
679;SDS011;322;48.846;9.230;2023-06-22T07:50:02;8.73;;;7.87;;
679;SDS011;322;48.846;9.230;2023-06-22T07:52:31;7.47;;;6.60;;
679;SDS011;322;48.846;9.230;2023-06-22T07:54:59;7.90;;;7.20;;
679;SDS011;322;48.846;9.230;2023-06-22T07:57:29;7.30;;;6.47;;
679;SDS011;322;48.846;9.230;2023-06-22T08:00:00;9.00;;;6.40;;
679;SDS011;322;48.846;9.230;2023-06-22T08:02:34;7.50;;;6.90;;
679;SDS011;322;48.846;9.230;2023-06-22T08:05:03;7.97;;;7.10;;
679;SDS011;322;48.846;9.230;2023-06-22T08:07:53;7.27;;;6.57;;
679;SDS011;322;48.846;9.230;2023-06-22T08:10:21;8.37;;;6.37;;
679;SDS011;322;48.846;9.230;2023-06-22T08:12:50;8.47;;;6.80;;
679;SDS011;322;48.846;9.230;2023-06-22T08:15:19;6.90;;;6.30;;
679;SDS011;322;48.846;9.230;2023-06-22T08:17:48;13.27;;;6.43;;
679;SDS011;322;48.846;9.230;2023-06-22T08:20:18;9.77;;;6.57;;
679;SDS011;322;48.846;9.230;2023-06-22T08:22:46;9.77;;;6.47;;
679;SDS011;322;48.846;9.230;2023-06-22T08:25:14;6.40;;;5.80;;
679;SDS011;322;48.846;9.230;2023-06-22T08:27:44;7.50;;;5.80;;
679;SDS011;322;48.846;9.230;2023-06-22T08:30:16;7.10;;;6.40;;
679;SDS011;322;48.846;9.230;2023-06-22T08:32:44;7.07;;;6.37;;
679;SDS011;322;48.846;9.230;2023-06-22T08:35:12;7.43;;;6.73;;
679;SDS011;322;48.846;9.230;2023-06-22T08:37:41;6.80;;;6.10;;
679;SDS011;322;48.846;9.230;2023-06-22T08:40:09;8.77;;;6.20;;
679;SDS011;322;48.846;9.230;2023-06-22T08:42:39;6.97;;;6.37;;
679;SDS011;322;48.846;9.230;2023-06-22T08:45:08;9.00;;;7.20;;
679;SDS011;322;48.846;9.230;2023-06-22T08:47:38;7.90;;;6.50;;
679;SDS011;322;48.846;9.230;2023-06-22T08:50:08;6.40;;;5.90;;
679;SDS011;322;48.846;9.230;2023-06-22T08:52:36;7.90;;;7.10;;
679;SDS011;322;48.846;9.230;2023-06-22T08:55:08;9.17;;;7.27;;
679;SDS011;322;48.846;9.230;2023-06-22T08:57:36;9.33;;;6.23;;
679;SDS011;322;48.846;9.230;2023-06-22T09:00:06;7.40;;;6.67;;
679;SDS011;322;48.846;9.230;2023-06-22T09:02:45;8.10;;;6.93;;
679;SDS011;322;48.846;9.230;2023-06-22T09:05:14;8.90;;;6.93;;
679;SDS011;322;48.846;9.230;2023-06-22T09:07:43;7.90;;;7.20;;
679;SDS011;322;48.846;9.230;2023-06-22T09:10:12;8.50;;;6.93;;
679;SDS011;322;48.846;9.230;2023-06-22T09:12:40;10.00;;;8.00;;
679;SDS011;322;48.846;9.230;2023-06-22T09:15:11;8.50;;;7.00;;
679;SDS011;322;48.846;9.230;2023-06-22T09:17:55;8.07;;;6.93;;
679;SDS011;322;48.846;9.230;2023-06-22T09:20:24;9.40;;;6.83;;
679;SDS011;322;48.846;9.230;2023-06-22T09:22:52;13.67;;;7.90;;
679;SDS011;322;48.846;9.230;2023-06-22T09:25:20;8.23;;;7.37;;
679;SDS011;322;48.846;9.230;2023-06-22T09:27:48;10.43;;;7.67;;
679;SDS011;322;48.846;9.230;2023-06-22T09:30:16;10.60;;;7.03;;
679;SDS011;322;48.846;9.230;2023-06-22T09:32:44;10.83;;;8.07;;
679;SDS011;322;48.846;9.230;2023-06-22T09:35:14;10.83;;;7.73;;
679;SDS011;322;48.846;9.230;2023-06-22T09:37:42;10.13;;;8.37;;
679;SDS011;322;48.846;9.230;2023-06-22T09:40:11;9.17;;;7.43;;
679;SDS011;322;48.846;9.230;2023-06-22T09:42:42;8.77;;;6.23;;
679;SDS011;322;48.846;9.230;2023-06-22T09:45:10;8.23;;;7.40;;
679;SDS011;322;48.846;9.230;2023-06-22T09:47:38;7.80;;;6.70;;
679;SDS011;322;48.846;9.230;2023-06-22T09:50:07;7.57;;;6.53;;
679;SDS011;322;48.846;9.230;2023-06-22T09:52:36;7.93;;;7.20;;
679;SDS011;322;48.846;9.230;2023-06-22T09:55:07;8.97;;;6.70;;
679;SDS011;322;48.846;9.230;2023-06-22T09:57:36;9.00;;;7.83;;
679;SDS011;322;48.846;9.230;2023-06-22T10:00:04;9.33;;;7.70;;
679;SDS011;322;48.846;9.230;2023-06-22T10:02:38;8.63;;;6.70;;
679;SDS011;322;48.846;9.230;2023-06-22T10:05:06;8.17;;;7.37;;
679;SDS011;322;48.846;9.230;2023-06-22T10:07:36;9.17;;;7.40;;
679;SDS011;322;48.846;9.230;2023-06-22T10:10:08;8.00;;;7.10;;
679;SDS011;322;48.846;9.230;2023-06-22T10:12:40;7.70;;;7.00;;
679;SDS011;322;48.846;9.230;2023-06-22T10:15:10;8.80;;;7.20;;
679;SDS011;322;48.846;9.230;2023-06-22T10:17:39;8.60;;;7.80;;
679;SDS011;322;48.846;9.230;2023-06-22T10:20:07;9.50;;;7.70;;
679;SDS011;322;48.846;9.230;2023-06-22T10:22:40;8.87;;;8.07;;
679;SDS011;322;48.846;9.230;2023-06-22T10:25:10;10.60;;;7.83;;
679;SDS011;322;48.846;9.230;2023-06-22T10:27:38;7.40;;;6.67;;
679;SDS011;322;48.846;9.230;2023-06-22T10:30:07;11.00;;;7.33;;
679;SDS011;322;48.846;9.230;2023-06-22T10:32:37;7.50;;;6.70;;
679;SDS011;322;48.846;9.230;2023-06-22T10:35:06;8.87;;;6.80;;
679;SDS011;322;48.846;9.230;2023-06-22T10:37:35;7.77;;;7.03;;
679;SDS011;322;48.846;9.230;2023-06-22T10:40:05;9.40;;;7.70;;
679;SDS011;322;48.846;9.230;2023-06-22T10:42:34;7.43;;;6.70;;
679;SDS011;322;48.846;9.230;2023-06-22T10:45:02;8.80;;;6.60;;
679;SDS011;322;48.846;9.230;2023-06-22T10:47:31;9.63;;;6.93;;
679;SDS011;322;48.846;9.230;2023-06-22T10:49:59;9.20;;;6.50;;
679;SDS011;322;48.846;9.230;2023-06-22T10:52:27;11.30;;;7.07;;
679;SDS011;322;48.846;9.230;2023-06-22T10:54:55;7.63;;;6.27;;
679;SDS011;322;48.846;9.230;2023-06-22T10:57:24;8.07;;;6.97;;
679;SDS011;322;48.846;9.230;2023-06-22T10:59:52;10.40;;;6.67;;
679;SDS011;322;48.846;9.230;2023-06-22T11:02:20;11.13;;;6.80;;
679;SDS011;322;48.846;9.230;2023-06-22T11:04:48;10.67;;;7.37;;
679;SDS011;322;48.846;9.230;2023-06-22T11:07:16;7.77;;;6.60;;
679;SDS011;322;48.846;9.230;2023-06-22T11:09:45;8.67;;;7.23;;
679;SDS011;322;48.846;9.230;2023-06-22T11:12:13;8.30;;;7.43;;
679;SDS011;322;48.846;9.230;2023-06-22T11:14:42;11.47;;;7.17;;
679;SDS011;322;48.846;9.230;2023-06-22T11:17:10;11.30;;;7.10;;
679;SDS011;322;48.846;9.230;2023-06-22T11:19:38;11.67;;;6.53;;
679;SDS011;322;48.846;9.230;2023-06-22T11:22:06;7.90;;;5.90;;
679;SDS011;322;48.846;9.230;2023-06-22T11:24:34;8.53;;;7.57;;
679;SDS011;322;48.846;9.230;2023-06-22T11:27:02;9.13;;;6.60;;
679;SDS011;322;48.846;9.230;2023-06-22T11:29:31;11.47;;;7.03;;
679;SDS011;322;48.846;9.230;2023-06-22T11:32:21;7.40;;;6.60;;
679;SDS011;322;48.846;9.230;2023-06-22T11:34:50;10.37;;;7.03;;
679;SDS011;322;48.846;9.230;2023-06-22T11:37:18;7.77;;;6.53;;
679;SDS011;322;48.846;9.230;2023-06-22T11:39:46;11.87;;;6.57;;
679;SDS011;322;48.846;9.230;2023-06-22T11:42:18;8.93;;;7.10;;
679;SDS011;322;48.846;9.230;2023-06-22T11:44:46;8.50;;;7.00;;
679;SDS011;322;48.846;9.230;2023-06-22T11:47:14;9.60;;;7.30;;
679;SDS011;322;48.846;9.230;2023-06-22T11:49:43;10.50;;;6.87;;
679;SDS011;322;48.846;9.230;2023-06-22T11:52:11;9.50;;;7.10;;
679;SDS011;322;48.846;9.230;2023-06-22T11:54:39;12.43;;;7.67;;
679;SDS011;322;48.846;9.230;2023-06-22T11:57:07;7.30;;;6.60;;
679;SDS011;322;48.846;9.230;2023-06-22T11:59:35;8.20;;;7.00;;
679;SDS011;322;48.846;9.230;2023-06-22T12:02:03;7.97;;;6.90;;
679;SDS011;322;48.846;9.230;2023-06-22T12:04:33;10.43;;;6.37;;
679;SDS011;322;48.846;9.230;2023-06-22T12:07:03;10.43;;;6.80;;
679;SDS011;322;48.846;9.230;2023-06-22T12:09:31;9.77;;;7.00;;
679;SDS011;322;48.846;9.230;2023-06-22T12:11:59;13.00;;;8.23;;
679;SDS011;322;48.846;9.230;2023-06-22T12:14:28;11.60;;;8.40;;
679;SDS011;322;48.846;9.230;2023-06-22T12:16:57;10.23;;;7.63;;
679;SDS011;322;48.846;9.230;2023-06-22T12:19:25;12.33;;;7.70;;
679;SDS011;322;48.846;9.230;2023-06-22T12:21:53;7.57;;;6.77;;
679;SDS011;322;48.846;9.230;2023-06-22T12:24:23;8.47;;;7.30;;
679;SDS011;322;48.846;9.230;2023-06-22T12:26:51;13.27;;;7.77;;
679;SDS011;322;48.846;9.230;2023-06-22T12:29:21;16.40;;;7.30;;
679;SDS011;322;48.846;9.230;2023-06-22T12:31:49;10.57;;;7.93;;
679;SDS011;322;48.846;9.230;2023-06-22T12:34:17;11.63;;;7.83;;
679;SDS011;322;48.846;9.230;2023-06-22T12:36:46;10.43;;;7.60;;
679;SDS011;322;48.846;9.230;2023-06-22T12:39:14;11.40;;;7.40;;
679;SDS011;322;48.846;9.230;2023-06-22T12:41:44;8.70;;;6.87;;
679;SDS011;322;48.846;9.230;2023-06-22T12:44:12;11.23;;;7.50;;
679;SDS011;322;48.846;9.230;2023-06-22T12:46:40;10.07;;;7.47;;
679;SDS011;322;48.846;9.230;2023-06-22T12:49:08;10.40;;;7.90;;
679;SDS011;322;48.846;9.230;2023-06-22T12:51:39;10.47;;;7.80;;
679;SDS011;322;48.846;9.230;2023-06-22T12:54:08;13.13;;;9.10;;
679;SDS011;322;48.846;9.230;2023-06-22T12:56:37;11.80;;;8.77;;
679;SDS011;322;48.846;9.230;2023-06-22T12:59:06;8.43;;;7.30;;
679;SDS011;322;48.846;9.230;2023-06-22T13:01:34;9.27;;;8.37;;
679;SDS011;322;48.846;9.230;2023-06-22T13:04:03;15.00;;;8.30;;
679;SDS011;322;48.846;9.230;2023-06-22T13:06:31;10.93;;;8.40;;
679;SDS011;322;48.846;9.230;2023-06-22T13:08:59;10.63;;;9.03;;
679;SDS011;322;48.846;9.230;2023-06-22T13:11:30;11.70;;;7.83;;
679;SDS011;322;48.846;9.230;2023-06-22T13:13:58;12.03;;;8.20;;
679;SDS011;322;48.846;9.230;2023-06-22T13:16:28;14.33;;;8.60;;
679;SDS011;322;48.846;9.230;2023-06-22T13:18:56;11.80;;;8.60;;
679;SDS011;322;48.846;9.230;2023-06-22T13:21:24;14.00;;;7.87;;
679;SDS011;322;48.846;9.230;2023-06-22T13:23:52;11.90;;;7.97;;
679;SDS011;322;48.846;9.230;2023-06-22T13:26:20;11.07;;;7.80;;
679;SDS011;322;48.846;9.230;2023-06-22T13:28:48;11.57;;;7.40;;
679;SDS011;322;48.846;9.230;2023-06-22T13:31:16;9.27;;;7.47;;
679;SDS011;322;48.846;9.230;2023-06-22T13:33:46;13.07;;;8.03;;
679;SDS011;322;48.846;9.230;2023-06-22T13:36:15;9.97;;;7.40;;
679;SDS011;322;48.846;9.230;2023-06-22T13:38:43;11.40;;;7.93;;
679;SDS011;322;48.846;9.230;2023-06-22T13:41:11;9.17;;;8.17;;
679;SDS011;322;48.846;9.230;2023-06-22T13:43:39;13.27;;;8.40;;
679;SDS011;322;48.846;9.230;2023-06-22T13:46:07;11.40;;;8.10;;
679;SDS011;322;48.846;9.230;2023-06-22T13:48:35;10.23;;;7.47;;
679;SDS011;322;48.846;9.230;2023-06-22T13:51:05;11.20;;;7.27;;
679;SDS011;322;48.846;9.230;2023-06-22T13:53:33;11.27;;;7.10;;
679;SDS011;322;48.846;9.230;2023-06-22T13:56:01;11.20;;;7.80;;
679;SDS011;322;48.846;9.230;2023-06-22T13:58:29;9.20;;;7.43;;
679;SDS011;322;48.846;9.230;2023-06-22T14:00:57;8.53;;;6.90;;
679;SDS011;322;48.846;9.230;2023-06-22T14:03:26;11.83;;;7.43;;
679;SDS011;322;48.846;9.230;2023-06-22T14:05:54;11.70;;;8.50;;
679;SDS011;322;48.846;9.230;2023-06-22T14:08:25;9.33;;;8.03;;
679;SDS011;322;48.846;9.230;2023-06-22T14:10:56;8.33;;;7.43;;
679;SDS011;322;48.846;9.230;2023-06-22T14:13:24;9.33;;;8.00;;
679;SDS011;322;48.846;9.230;2023-06-22T14:15:52;10.50;;;7.37;;
679;SDS011;322;48.846;9.230;2023-06-22T14:18:20;10.63;;;8.33;;
679;SDS011;322;48.846;9.230;2023-06-22T14:20:49;21.63;;;8.53;;
679;SDS011;322;48.846;9.230;2023-06-22T14:23:17;10.27;;;7.07;;
679;SDS011;322;48.846;9.230;2023-06-22T14:25:47;9.70;;;7.20;;
679;SDS011;322;48.846;9.230;2023-06-22T14:28:15;7.60;;;6.60;;
679;SDS011;322;48.846;9.230;2023-06-22T14:30:43;9.87;;;6.90;;
679;SDS011;322;48.846;9.230;2023-06-22T14:33:12;9.73;;;7.10;;
679;SDS011;322;48.846;9.230;2023-06-22T14:35:40;11.43;;;6.70;;
679;SDS011;322;48.846;9.230;2023-06-22T14:38:08;12.73;;;7.33;;
679;SDS011;322;48.846;9.230;2023-06-22T14:40:36;11.00;;;7.03;;
679;SDS011;322;48.846;9.230;2023-06-22T14:43:25;11.37;;;7.47;;
679;SDS011;322;48.846;9.230;2023-06-22T14:45:53;12.70;;;7.30;;
679;SDS011;322;48.846;9.230;2023-06-22T14:48:21;14.33;;;8.03;;
679;SDS011;322;48.846;9.230;2023-06-22T14:50:49;9.50;;;7.60;;
679;SDS011;322;48.846;9.230;2023-06-22T14:53:17;8.17;;;7.17;;
679;SDS011;322;48.846;9.230;2023-06-22T14:55:45;12.33;;;7.73;;
679;SDS011;322;48.846;9.230;2023-06-22T14:58:13;8.10;;;7.23;;
679;SDS011;322;48.846;9.230;2023-06-22T15:00:43;10.90;;;7.00;;
679;SDS011;322;48.846;9.230;2023-06-22T15:03:11;12.10;;;7.20;;
679;SDS011;322;48.846;9.230;2023-06-22T15:05:45;8.77;;;6.87;;
679;SDS011;322;48.846;9.230;2023-06-22T15:08:13;9.23;;;6.60;;
679;SDS011;322;48.846;9.230;2023-06-22T15:10:44;10.67;;;6.43;;
679;SDS011;322;48.846;9.230;2023-06-22T15:13:12;9.37;;;5.20;;
679;SDS011;322;48.846;9.230;2023-06-22T15:15:40;8.30;;;4.60;;
679;SDS011;322;48.846;9.230;2023-06-22T15:18:10;12.23;;;5.60;;
679;SDS011;322;48.846;9.230;2023-06-22T15:20:38;9.10;;;5.23;;
679;SDS011;322;48.846;9.230;2023-06-22T15:23:06;15.80;;;4.80;;
679;SDS011;322;48.846;9.230;2023-06-22T15:25:36;8.10;;;4.57;;
679;SDS011;322;48.846;9.230;2023-06-22T15:28:06;8.40;;;4.90;;
679;SDS011;322;48.846;9.230;2023-06-22T15:30:34;11.10;;;4.50;;
679;SDS011;322;48.846;9.230;2023-06-22T15:33:03;9.10;;;4.10;;
679;SDS011;322;48.846;9.230;2023-06-22T15:35:32;8.40;;;3.97;;
679;SDS011;322;48.846;9.230;2023-06-22T15:38:00;8.93;;;4.70;;
679;SDS011;322;48.846;9.230;2023-06-22T15:40:28;8.33;;;4.00;;